Time;durP1;ratioP1;P1;durP2;ratioP2;P2;SDS_P1;SDS_P2;PMS_P1;PMS_P2;Temp;Humidity;BMP_temperature;BMP_pressure;BME280_temperature;BME280_humidity;BME280_pressure;Samples;Min_cycle;Max_cycle;Signal;HPM_P1;HPM_P2
2023/08/20 00:00:19;;;;;;;21.02;14.13;;;;;;;19.81;85.03;99595.41;5093554;28;20044;-57
2023/08/20 00:02:46;;;;;;;23.42;15.38;;;;;;;19.87;84.81;99610.38;5093718;28;20044;-56
2023/08/20 00:05:13;;;;;;;21.35;14.57;;;;;;;19.85;84.91;99601.78;5074734;28;20306;-56
2023/08/20 00:07:39;;;;;;;19.52;14.00;;;;;;;19.84;85.12;99598.31;5059011;28;20501;-55
2023/08/20 00:10:05;;;;;;;20.50;14.15;;;;;;;19.83;85.37;99596.72;5093796;28;20121;-56
2023/08/20 00:12:31;;;;;;;23.08;14.38;;;;;;;19.83;85.45;99596.72;5075442;28;20490;-56
2023/08/20 00:15:05;;;;;;;18.65;14.43;;;;;;;19.83;85.57;99585.19;5093390;28;20101;-57
2023/08/20 00:17:32;;;;;;;20.00;14.38;;;;;;;19.80;85.59;99575.00;5093792;28;20135;-56
2023/08/20 00:19:57;;;;;;;25.75;15.23;;;;;;;19.80;85.64;99572.31;5093053;28;20055;-56
2023/08/20 00:22:25;;;;;;;23.48;15.40;;;;;;;19.77;85.42;99568.31;5093651;28;20043;-55
2023/08/20 00:24:54;;;;;;;20.17;14.98;;;;;;;19.72;86.00;99558.44;5093139;28;20094;-54
2023/08/20 00:27:20;;;;;;;23.38;14.80;;;;;;;19.73;86.53;99572.66;5075204;28;20404;-57
2023/08/20 00:29:46;;;;;;;19.55;13.85;;;;;;;19.67;87.04;99569.25;5075069;28;20036;-57
2023/08/20 00:32:12;;;;;;;22.23;13.73;;;;;;;19.65;87.33;99562.59;5075195;28;20131;-55
2023/08/20 00:34:38;;;;;;;19.63;13.73;;;;;;;19.60;87.75;99562.63;5074943;28;20058;-56
2023/08/20 00:37:03;;;;;;;23.42;14.60;;;;;;;19.53;88.06;99554.94;5075018;28;20492;-55
2023/08/20 00:39:29;;;;;;;25.77;14.50;;;;;;;19.48;88.25;99561.19;5058097;28;20047;-56
2023/08/20 00:41:55;;;;;;;22.45;15.40;;;;;;;19.46;88.02;99554.50;5093226;28;20071;-55
2023/08/20 00:44:21;;;;;;;28.17;15.70;;;;;;;19.43;88.52;99563.94;5074752;28;20540;-56
2023/08/20 00:46:48;;;;;;;19.42;14.07;;;;;;;19.40;88.83;99558.38;5092273;28;20044;-56
2023/08/20 00:49:13;;;;;;;21.05;14.05;;;;;;;19.37;89.12;99557.06;5075008;28;20036;-55
2023/08/20 00:51:39;;;;;;;23.48;14.00;;;;;;;19.33;89.63;99561.41;5092715;28;20506;-56
2023/08/20 00:54:06;;;;;;;18.75;15.00;;;;;;;19.32;89.49;99564.38;5074687;28;20048;-57
2023/08/20 00:56:32;;;;;;;20.65;13.93;;;;;;;19.31;89.36;99568.97;5092776;28;20080;-56
2023/08/20 00:58:58;;;;;;;22.35;13.68;;;;;;;19.27;89.74;99565.28;5092585;28;20040;-57
2023/08/20 01:01:24;;;;;;;26.05;15.85;;;;;;;19.26;90.12;99552.91;5074773;28;20394;-58
2023/08/20 01:03:50;;;;;;;22.85;14.63;;;;;;;19.27;89.86;99551.84;5091532;28;20047;-56
2023/08/20 01:06:55;;;;;;;20.95;15.07;;;;;;;19.30;89.88;99553.94;5092576;28;20047;-56
2023/08/20 01:09:39;;;;;;;22.77;14.70;;;;;;;19.32;89.83;99554.44;5074303;28;20048;-57
2023/08/20 01:12:06;;;;;;;23.50;14.48;;;;;;;19.34;89.28;99540.72;5057714;28;20440;-56
2023/08/20 01:14:32;;;;;;;26.58;14.90;;;;;;;19.36;89.30;99552.78;5074201;28;20048;-57
2023/08/20 01:16:59;;;;;;;21.23;14.70;;;;;;;19.38;88.97;99549.78;5074224;28;20048;-56
2023/08/20 01:19:25;;;;;;;23.48;15.23;;;;;;;19.39;88.56;99559.47;5091980;28;20058;-57
2023/08/20 01:22:00;;;;;;;23.95;15.95;;;;;;;19.39;89.05;99556.78;5057437;28;20044;-57
2023/08/20 01:24:53;;;;;;;26.52;15.45;;;;;;;19.43;88.83;99549.72;5073880;28;20055;-57
2023/08/20 01:27:34;;;;;;;24.88;15.10;;;;;;;19.45;89.48;99540.28;5057393;28;20059;-57
2023/08/20 01:30:00;;;;;;;23.92;15.82;;;;;;;19.46;89.54;99539.16;5091984;28;20035;-56
2023/08/20 01:32:26;;;;;;;20.67;15.43;;;;;;;19.48;89.79;99545.06;5057621;28;20042;-56
2023/08/20 01:34:53;;;;;;;19.00;15.18;;;;;;;19.50;89.99;99545.56;5057103;28;20408;-57
2023/08/20 01:37:19;;;;;;;21.40;15.38;;;;;;;19.51;90.29;99544.47;5073876;28;20421;-55
2023/08/20 01:39:44;;;;;;;21.55;15.77;;;;;;;19.54;90.31;99535.03;5091872;28;20040;-56
2023/08/20 01:42:10;;;;;;;24.40;16.08;;;;;;;19.54;90.04;99529.66;5073667;28;20066;-56
2023/08/20 01:44:36;;;;;;;23.77;15.88;;;;;;;19.54;89.88;99539.63;5073560;28;20148;-56
2023/08/20 01:47:01;;;;;;;25.55;16.33;;;;;;;19.54;89.87;99531.53;5091821;28;20048;-56
2023/08/20 01:49:28;;;;;;;19.02;15.13;;;;;;;19.52;90.24;99529.94;5092026;28;20088;-54
2023/08/20 01:51:54;;;;;;;22.33;15.60;;;;;;;19.50;90.40;99525.94;5073687;28;20131;-55
2023/08/20 01:54:20;;;;;;;25.80;15.73;;;;;;;19.46;90.03;99531.09;5073404;28;20028;-54
2023/08/20 01:56:46;;;;;;;23.70;15.52;;;;;;;19.37;91.20;99527.47;5073680;28;20559;-57
2023/08/20 01:59:12;;;;;;;23.00;16.13;;;;;;;19.22;91.73;99527.72;5073480;28;20044;-55
2023/08/20 02:01:38;;;;;;;34.13;18.80;;;;;;;19.19;91.95;99531.78;5073506;28;20425;-55
2023/08/20 02:04:04;;;;;;;26.40;17.90;;;;;;;19.15;92.13;99532.63;5073312;28;20044;-54
2023/08/20 02:06:29;;;;;;;24.52;17.30;;;;;;;19.11;92.24;99535.13;5091778;28;20052;-55
2023/08/20 02:08:55;;;;;;;25.70;16.52;;;;;;;19.10;92.28;99541.59;5056572;28;20048;-55
2023/08/20 02:11:22;;;;;;;21.92;16.17;;;;;;;19.10;92.21;99540.78;5090759;28;20050;-55
2023/08/20 02:13:48;;;;;;;20.58;15.40;;;;;;;19.11;92.16;99540.47;5073150;28;20032;-55
2023/08/20 02:16:16;;;;;;;19.85;16.15;;;;;;;19.14;92.31;99541.81;5073417;28;20419;-56
2023/08/20 02:19:02;;;;;;;21.63;16.83;;;;;;;19.23;91.80;99548.13;5076311;28;20398;-57
2023/08/20 02:21:29;;;;;;;22.08;16.45;;;;;;;19.26;92.03;99545.63;5091679;28;20131;-55
2023/08/20 02:23:54;;;;;;;20.92;16.17;;;;;;;19.27;91.89;99549.94;5073098;28;20155;-56
2023/08/20 02:26:20;;;;;;;20.88;15.88;;;;;;;19.28;92.15;99538.09;5073161;28;20032;-55
2023/08/20 02:28:46;;;;;;;22.58;15.90;;;;;;;19.34;92.13;99540.72;5076183;28;20509;-55
2023/08/20 02:31:12;;;;;;;23.33;16.60;;;;;;;19.35;92.24;99542.31;5095423;28;20036;-55
2023/08/20 02:33:38;;;;;;;21.75;16.30;;;;;;;19.34;91.50;99552.25;5095409;28;20048;-57
2023/08/20 02:36:04;;;;;;;28.88;19.02;;;;;;;19.26;92.39;99577.88;5076442;28;20082;-57
2023/08/20 02:38:30;;;;;;;24.73;18.85;;;;;;;19.09;92.08;99576.78;5077222;28;20078;-55
2023/08/20 02:40:56;;;;;;;23.05;18.23;;;;;;;19.01;91.98;99557.56;5077424;28;20425;-57
2023/08/20 02:43:21;;;;;;;24.73;18.02;;;;;;;18.96;92.36;99551.44;5095614;28;20044;-56
2023/08/20 02:45:47;;;;;;;21.55;17.75;;;;;;;18.99;92.74;99569.66;5077132;28;20075;-57
2023/08/20 02:48:14;;;;;;;22.38;17.20;;;;;;;18.97;92.65;99574.53;5043595;28;20047;-53
2023/08/20 02:50:40;;;;;;;22.77;18.05;;;;;;;18.91;92.22;99564.94;5095078;28;20036;-53
2023/08/20 02:53:06;;;;;;;27.00;18.60;;;;;;;18.92;92.39;99570.03;5060401;28;20052;-55
2023/08/20 02:55:33;;;;;;;25.52;18.83;;;;;;;18.95;92.44;99564.09;5076789;28;20043;-58
2023/08/20 02:57:58;;;;;;;25.25;17.83;;;;;;;19.01;92.16;99589.78;5076577;28;20127;-54
2023/08/20 03:00:24;;;;;;;22.58;15.98;;;;;;;19.10;90.74;99584.56;5060151;28;20581;-56
2023/08/20 03:02:50;;;;;;;20.13;16.50;;;;;;;19.14;90.92;99596.34;5076957;28;20409;-55
2023/08/20 03:05:15;;;;;;;23.88;16.75;;;;;;;19.27;90.07;99598.31;5076538;28;20134;-56
2023/08/20 03:07:41;;;;;;;24.85;16.27;;;;;;;19.43;89.18;99584.66;5095149;28;20040;-56
2023/08/20 03:10:07;;;;;;;19.38;16.30;;;;;;;19.61;88.42;99589.22;5076529;28;20043;-55
2023/08/20 03:12:33;;;;;;;23.70;17.08;;;;;;;19.83;87.44;99579.78;5060007;28;20044;-55
2023/08/20 03:15:02;;;;;;;21.88;16.02;;;;;;;20.22;84.30;99571.31;5094590;28;20570;-56
2023/08/20 03:17:29;;;;;;;20.45;14.95;;;;;;;20.62;82.18;99577.88;5076568;28;20051;-54
2023/08/20 03:19:56;;;;;;;18.80;15.18;;;;;;;20.99;81.29;99586.81;5094396;28;20048;-57
2023/08/20 03:22:23;;;;;;;19.52;15.20;;;;;;;21.24;80.41;99573.91;5076036;28;20052;-56
2023/08/20 03:24:49;;;;;;;19.05;14.68;;;;;;;21.28;80.00;99572.19;5094273;28;20547;-55
2023/08/20 03:27:16;;;;;;;18.55;15.65;;;;;;;21.12;79.12;99574.44;5076303;28;20462;-57
2023/08/20 03:29:43;;;;;;;18.15;13.85;;;;;;;21.10;78.65;99574.72;5076196;28;20047;-56
2023/08/20 03:32:10;;;;;;;20.00;14.98;;;;;;;21.43;78.30;99581.88;5076121;28;20064;-55
2023/08/20 03:34:36;;;;;;;17.17;14.13;;;;;;;21.65;75.37;99589.16;5076155;28;20130;-56
2023/08/20 03:37:02;;;;;;;18.83;14.45;;;;;;;21.45;75.74;99585.84;5076054;28;20127;-56
2023/08/20 03:39:28;;;;;;;21.40;15.00;;;;;;;21.31;75.74;99583.16;5058234;28;20489;-55
2023/08/20 03:41:54;;;;;;;19.25;14.98;;;;;;;21.23;76.02;99586.56;5059166;28;20036;-55
2023/08/20 03:44:20;;;;;;;18.50;14.70;;;;;;;21.24;76.34;99592.78;5075858;28;20078;-55
2023/08/20 03:46:45;;;;;;;20.95;15.20;;;;;;;21.19;76.44;99579.41;5094179;28;20044;-54
2023/08/20 03:49:12;;;;;;;18.40;14.65;;;;;;;21.15;76.33;99579.22;5075567;28;20397;-54
2023/08/20 03:51:38;;;;;;;21.05;15.07;;;;;;;21.08;76.86;99573.44;5075814;28;20043;-56
2023/08/20 03:54:04;;;;;;;19.55;15.57;;;;;;;21.21;76.54;99563.72;5075860;28;20548;-56
2023/08/20 03:56:29;;;;;;;20.27;15.75;;;;;;;21.14;76.81;99552.56;5093915;28;20040;-53
2023/08/20 03:58:55;;;;;;;17.95;15.68;;;;;;;20.99;77.80;99542.91;5075666;28;20044;-57
2023/08/20 04:01:21;;;;;;;24.65;17.30;;;;;;;20.89;79.24;99525.06;5092722;28;20094;-56
2023/08/20 04:03:47;;;;;;;21.80;16.70;;;;;;;20.85;79.80;99514.09;5058843;28;20047;-57
2023/08/20 04:06:13;;;;;;;22.90;17.42;;;;;;;20.85;80.05;99492.56;5093624;28;20516;-56
2023/08/20 04:08:39;;;;;;;23.27;16.95;;;;;;;20.75;80.82;99486.56;5093906;28;20044;-56
2023/08/20 04:11:05;;;;;;;23.08;16.85;;;;;;;20.74;81.33;99476.91;5075216;28;20537;-56
2023/08/20 04:13:31;;;;;;;25.10;17.48;;;;;;;20.70;81.22;99474.00;5075282;28;20417;-55
2023/08/20 04:15:56;;;;;;;20.20;16.58;;;;;;;20.71;80.95;99467.53;5093739;28;20044;-57
2023/08/20 04:18:22;;;;;;;18.42;16.52;;;;;;;20.70;81.24;99465.13;5075489;28;20055;-56
2023/08/20 04:20:51;;;;;;;21.02;16.25;;;;;;;20.65;81.10;99468.75;5074362;28;20117;-56
2023/08/20 04:23:16;;;;;;;20.33;16.08;;;;;;;20.61;80.89;99460.44;5075267;28;20070;-56
2023/08/20 04:25:42;;;;;;;18.60;15.20;;;;;;;20.62;80.99;99472.03;5075375;28;20055;-56
2023/08/20 04:28:09;;;;;;;21.98;16.55;;;;;;;20.73;80.40;99468.00;5075286;28;20044;-56
2023/08/20 04:30:35;;;;;;;21.02;16.88;;;;;;;20.84;79.72;99469.38;5093376;28;20059;-56
2023/08/20 04:33:01;;;;;;;25.75;17.25;;;;;;;20.94;79.52;99479.16;5073709;28;20048;-55
2023/08/20 04:35:27;;;;;;;22.50;17.20;;;;;;;20.94;79.25;99476.47;5074957;28;20055;-57
2023/08/20 04:37:53;;;;;;;25.40;17.42;;;;;;;20.92;79.29;99475.16;5075067;28;20048;-56
2023/08/20 04:40:19;;;;;;;25.52;17.75;;;;;;;20.97;79.34;99483.94;5074945;28;20058;-57
2023/08/20 04:42:45;;;;;;;25.17;18.48;;;;;;;20.99;79.55;99478.22;5075022;28;20120;-56
2023/08/20 04:45:12;;;;;;;24.00;18.70;;;;;;;21.04;79.67;99478.91;5074105;28;20121;-56
2023/08/20 04:47:38;;;;;;;26.60;18.77;;;;;;;21.14;79.30;99485.16;5074873;28;20501;-55
2023/08/20 04:50:07;;;;;;;22.85;18.67;;;;;;;21.17;79.60;99484.56;5057632;28;20043;-56
2023/08/20 04:52:33;;;;;;;26.33;19.30;;;;;;;21.25;79.42;99479.22;5074727;28;20044;-56
2023/08/20 04:55:00;;;;;;;24.02;18.83;;;;;;;21.27;79.30;99468.16;5074232;28;20488;-55
2023/08/20 04:57:26;;;;;;;27.95;19.17;;;;;;;21.36;78.90;99460.13;5092508;28;20059;-57
2023/08/20 04:59:51;;;;;;;23.88;19.75;;;;;;;21.48;78.39;99463.09;5057687;28;20463;-56
2023/08/20 05:02:52;;;;;;;22.40;18.50;;;;;;;21.64;77.93;99460.78;5010292;28;20081;-57
2023/08/20 05:05:20;;;;;;;26.17;20.02;;;;;;;21.67;78.04;99458.28;5061973;28;20067;-56
2023/08/20 05:07:48;;;;;;;21.40;18.80;;;;;;;21.80;78.24;99472.81;5074497;28;20432;-56
2023/08/20 05:10:14;;;;;;;23.20;18.75;;;;;;;21.85;77.84;99469.94;5074176;28;20104;-56
2023/08/20 05:12:39;;;;;;;22.77;19.10;;;;;;;21.85;78.00;99474.56;5092685;28;20535;-55
2023/08/20 05:15:05;;;;;;;22.05;17.85;;;;;;;21.90;78.27;99464.41;5073926;28;20044;-56
2023/08/20 05:17:31;;;;;;;24.55;19.52;;;;;;;21.85;78.55;99469.16;5074366;28;20516;-55
2023/08/20 05:19:57;;;;;;;23.65;18.27;;;;;;;21.96;78.62;99467.78;5073860;28;20157;-56
2023/08/20 05:22:23;;;;;;;25.17;18.27;;;;;;;22.03;77.75;99461.94;5074033;28;20547;-53
2023/08/20 05:24:48;;;;;;;22.45;17.40;;;;;;;22.10;77.36;99465.78;5073914;28;20117;-56
2023/08/20 05:27:16;;;;;;;20.13;18.02;;;;;;;22.10;77.09;99463.09;5092330;28;20101;-56
2023/08/20 05:29:44;;;;;;;;;;;;;;;22.21;77.01;99450.13;5074661;28;20046;-54
2023/08/20 05:32:10;;;;;;;22.13;17.02;;;;;;;22.30;76.26;99459.06;5073963;28;20022;-56
2023/08/20 05:34:36;;;;;;;20.73;15.15;;;;;;;22.41;75.74;99444.16;5073785;28;20046;-56
2023/08/20 05:37:03;;;;;;;18.67;14.25;;;;;;;22.37;75.05;99437.00;5073592;28;20101;-54
2023/08/20 05:39:30;;;;;;;15.65;12.80;;;;;;;22.44;74.56;99432.72;5073731;28;20082;-55
2023/08/20 05:41:55;;;;;;;15.00;12.70;;;;;;;22.56;73.93;99450.19;5091944;28;20065;-56
2023/08/20 05:44:23;;;;;;;16.23;12.75;;;;;;;22.55;74.37;99437.81;5040389;28;20040;-55
2023/08/20 05:46:49;;;;;;;14.88;13.25;;;;;;;22.66;73.64;99445.28;5056998;28;20058;-57
2023/08/20 05:49:18;;;;;;;14.25;12.48;;;;;;;22.71;73.75;99447.06;5056736;28;20036;-56
2023/08/20 05:51:44;;;;;;;15.32;12.00;;;;;;;22.81;73.24;99454.84;5057411;28;20048;-56
2023/08/20 05:54:11;;;;;;;17.50;12.05;;;;;;;22.88;73.09;99444.38;5073505;28;20040;-56
2023/08/20 05:56:37;;;;;;;17.73;14.40;;;;;;;22.94;72.54;99444.19;5073538;28;20059;-56
2023/08/20 05:59:03;;;;;;;21.25;14.35;;;;;;;22.82;72.32;99437.50;5073354;28;20418;-57
2023/08/20 06:01:30;;;;;;;16.25;12.48;;;;;;;22.76;72.06;99441.47;5056760;28;20113;-56
2023/08/20 06:03:55;;;;;;;15.88;12.05;;;;;;;22.65;72.13;99437.53;5072754;28;20505;-56
2023/08/20 06:06:21;;;;;;;17.35;12.77;;;;;;;22.46;72.34;99437.78;5073559;28;20043;-55
2023/08/20 06:08:47;;;;;;;13.98;11.95;;;;;;;22.48;72.48;99440.19;5073624;28;20139;-57
2023/08/20 06:11:13;;;;;;;16.90;12.05;;;;;;;22.62;72.47;99446.25;5091379;28;20043;-57
2023/08/20 06:13:38;;;;;;;15.27;12.15;;;;;;;22.69;71.68;99443.88;5091629;28;20032;-57
2023/08/20 06:16:05;;;;;;;13.57;11.20;;;;;;;22.80;71.69;99436.25;5091382;28;20036;-57
2023/08/20 06:18:32;;;;;;;13.85;11.15;;;;;;;23.04;71.20;99447.41;5073229;28;20036;-57
2023/08/20 06:20:57;;;;;;;16.70;11.88;;;;;;;23.11;70.39;99442.31;5090804;28;20052;-58
2023/08/20 06:23:23;;;;;;;16.90;12.95;;;;;;;23.34;71.02;99440.22;5073028;28;20044;-57
2023/08/20 06:25:50;;;;;;;13.50;10.93;;;;;;;23.55;69.76;99436.84;5090992;28;20046;-58
2023/08/20 06:28:16;;;;;;;13.88;10.70;;;;;;;23.63;68.16;99443.34;5091500;28;20177;-56
2023/08/20 06:30:41;;;;;;;12.48;9.88;;;;;;;23.80;67.75;99443.31;5073000;28;20036;-57
2023/08/20 06:33:08;;;;;;;13.20;10.10;;;;;;;23.92;67.02;99434.53;5091407;28;20490;-56
2023/08/20 06:35:34;;;;;;;11.43;9.68;;;;;;;23.88;67.19;99430.88;5090959;28;20047;-55
2023/08/20 06:37:59;;;;;;;14.18;9.75;;;;;;;23.89;67.30;99435.97;5091246;28;20063;-56
2023/08/20 06:40:25;;;;;;;12.13;10.05;;;;;;;24.03;66.50;99430.31;5090679;28;20490;-57
2023/08/20 06:42:50;;;;;;;12.02;9.18;;;;;;;24.12;66.36;99431.09;5091122;28;20047;-57
2023/08/20 06:45:16;;;;;;;14.27;9.15;;;;;;;24.28;65.91;99425.09;5090750;28;20097;-55
2023/08/20 06:47:42;;;;;;;13.68;9.60;;;;;;;24.37;65.82;99418.50;5091182;28;20539;-56
2023/08/20 06:50:08;;;;;;;10.88;9.73;;;;;;;24.46;65.07;99415.78;5090035;28;20048;-57
2023/08/20 06:52:33;;;;;;;10.48;9.38;;;;;;;24.51;64.91;99422.94;5091336;28;20040;-57
2023/08/20 06:54:59;;;;;;;11.43;9.65;;;;;;;24.54;65.13;99419.56;5072570;28;20127;-57
2023/08/20 06:57:25;;;;;;;15.05;9.57;;;;;;;24.63;64.77;99426.50;5072589;28;20052;-56
2023/08/20 06:59:50;;;;;;;13.40;9.98;;;;;;;24.68;64.87;99414.66;5090562;28;20040;-57
2023/08/20 07:02:16;;;;;;;12.20;9.48;;;;;;;24.60;64.84;99413.59;5090992;28;20050;-56
2023/08/20 07:04:41;;;;;;;12.13;9.02;;;;;;;24.52;65.13;99414.44;5090741;28;20044;-58
2023/08/20 07:07:08;;;;;;;11.40;9.60;;;;;;;24.53;65.44;99421.47;5091054;28;20052;-57
2023/08/20 07:09:33;;;;;;;11.38;8.90;;;;;;;24.55;65.22;99424.63;5091008;28;20036;-57
2023/08/20 07:11:59;;;;;;;10.20;9.10;;;;;;;24.56;64.86;99411.88;5090825;28;20497;-57
2023/08/20 07:14:25;;;;;;;10.07;8.60;;;;;;;24.62;65.00;99410.53;5074516;28;20537;-57
2023/08/20 07:16:50;;;;;;;13.32;9.23;;;;;;;24.61;65.52;99401.63;5075935;28;20047;-56
2023/08/20 07:19:17;;;;;;;10.93;9.20;;;;;;;24.55;65.15;99400.25;5094558;28;20052;-55
2023/08/20 07:21:43;;;;;;;12.13;9.20;;;;;;;24.61;65.36;99409.75;5094757;28;20482;-54
2023/08/20 07:24:08;;;;;;;11.65;9.20;;;;;;;24.64;65.53;99406.38;5094349;28;20052;-57
2023/08/20 07:26:34;;;;;;;11.20;8.85;;;;;;;24.67;65.14;99407.66;5094595;28;20439;-55
2023/08/20 07:29:00;;;;;;;11.73;9.00;;;;;;;24.60;64.90;99410.91;5094292;28;20044;-56
2023/08/20 07:31:31;;;;;;;10.23;8.52;;;;;;;24.64;65.17;99405.59;5094437;28;20131;-57
2023/08/20 07:33:58;;;;;;;12.55;9.38;;;;;;;24.80;64.82;99403.09;5094132;28;20487;-56
2023/08/20 07:36:24;;;;;;;9.73;8.73;;;;;;;24.89;64.41;99404.59;5042740;28;20559;-56
2023/08/20 07:38:51;;;;;;;12.63;8.73;;;;;;;25.02;64.63;99396.50;5094318;28;20050;-55
2023/08/20 07:41:19;;;;;;;9.80;8.77;;;;;;;25.09;64.81;99397.56;5075915;28;20110;-56
2023/08/20 07:43:45;;;;;;;12.60;9.18;;;;;;;25.26;63.95;99388.47;5093643;28;20070;-57
2023/08/20 07:46:11;;;;;;;11.80;9.20;;;;;;;25.40;63.55;99390.88;5075952;28;20273;-56
2023/08/20 07:48:37;;;;;;;11.50;8.82;;;;;;;25.41;63.49;99392.47;5093975;28;20040;-57
2023/08/20 07:51:03;;;;;;;11.30;9.07;;;;;;;25.42;63.91;99388.66;5093796;28;20167;-56
2023/08/20 07:53:29;;;;;;;10.20;9.20;;;;;;;25.51;63.38;99383.91;5094302;28;20044;-55
2023/08/20 07:55:55;;;;;;;11.38;8.68;;;;;;;25.52;63.06;99381.97;5093664;28;20058;-56
2023/08/20 07:58:21;;;;;;;9.88;8.88;;;;;;;25.49;63.38;99385.38;5094158;28;20081;-55
2023/08/20 08:00:47;;;;;;;12.45;8.88;;;;;;;25.58;62.74;99396.91;5093683;28;20448;-58
2023/08/20 08:03:14;;;;;;;10.60;8.55;;;;;;;25.68;61.85;99392.97;5094017;28;20036;-58
2023/08/20 08:05:50;;;;;;;9.25;8.02;;;;;;;25.73;61.69;99395.47;5093537;28;20048;-56
2023/08/20 08:08:17;;;;;;;9.02;8.10;;;;;;;25.67;61.53;99394.09;5075707;28;20043;-56
2023/08/20 08:10:46;;;;;;;10.63;8.20;;;;;;;25.74;61.05;99391.63;5075423;28;20075;-58
2023/08/20 08:13:13;;;;;;;9.15;7.85;;;;;;;25.69;61.61;99384.50;5075598;28;20038;-57
2023/08/20 08:15:39;;;;;;;11.90;8.40;;;;;;;25.72;61.27;99386.53;5075754;28;20453;-56
2023/08/20 08:18:05;;;;;;;8.65;7.60;;;;;;;25.73;60.22;99373.75;5093717;28;20493;-57
2023/08/20 08:20:31;;;;;;;8.93;7.45;;;;;;;25.64;60.52;99371.13;5075271;28;20095;-57
2023/08/20 08:22:57;;;;;;;8.52;7.72;;;;;;;25.65;60.30;99370.03;5093621;28;20046;-57
2023/08/20 08:25:22;;;;;;;9.60;7.60;;;;;;;25.61;60.38;99364.44;5092710;28;20056;-57
2023/08/20 08:27:48;;;;;;;10.20;7.00;;;;;;;25.66;59.91;99362.66;5093659;28;20050;-56
2023/08/20 08:30:14;;;;;;;8.30;7.50;;;;;;;25.66;59.82;99359.94;5093067;28;20051;-56
2023/08/20 08:32:40;;;;;;;10.45;7.03;;;;;;;25.63;60.46;99350.56;5093028;28;20044;-57
2023/08/20 08:35:06;;;;;;;8.60;7.60;;;;;;;25.72;60.59;99345.03;5092959;28;20042;-56
2023/08/20 08:37:32;;;;;;;9.23;6.85;;;;;;;25.74;60.24;99348.97;5093077;28;20465;-56
2023/08/20 08:39:58;;;;;;;11.85;6.60;;;;;;;25.57;59.78;99352.69;5092884;28;20162;-56
2023/08/20 08:42:24;;;;;;;9.40;8.20;;;;;;;25.43;59.38;99349.50;5092429;28;20044;-56
2023/08/20 08:44:52;;;;;;;7.00;6.40;;;;;;;25.47;58.81;99345.00;5092767;28;20048;-56
2023/08/20 08:47:21;;;;;;;10.13;7.32;;;;;;;25.54;58.52;99342.53;5074581;28;20047;-56
2023/08/20 08:49:48;;;;;;;10.80;6.82;;;;;;;25.56;58.39;99345.69;5092714;28;20586;-57
2023/08/20 08:52:14;;;;;;;7.93;6.95;;;;;;;25.59;58.45;99349.66;5092588;28;20064;-54
2023/08/20 08:54:39;;;;;;;13.63;7.15;;;;;;;25.59;58.70;99327.94;5092272;28;20067;-55
2023/08/20 08:57:05;;;;;;;8.00;7.20;;;;;;;25.81;57.99;99348.41;5092742;28;20500;-56
2023/08/20 08:59:32;;;;;;;7.85;6.80;;;;;;;25.90;57.58;99351.03;5074591;28;20052;-54
2023/08/20 09:01:57;;;;;;;8.23;6.68;;;;;;;25.89;57.70;99352.97;5092862;28;20040;-53
2023/08/20 09:04:23;;;;;;;9.20;7.13;;;;;;;25.89;57.74;99352.19;5057598;28;20086;-56
2023/08/20 09:06:55;;;;;;;7.82;6.85;;;;;;;26.01;57.79;99344.03;5091305;28;20489;-56
2023/08/20 09:09:21;;;;;;;8.00;6.97;;;;;;;26.18;56.79;99351.91;5092215;28;20050;-57
2023/08/20 09:11:48;;;;;;;10.52;7.18;;;;;;;26.14;56.91;99356.44;5092378;28;20043;-57
2023/08/20 09:14:31;;;;;;;7.53;6.20;;;;;;;25.91;56.32;99355.31;5092271;28;20108;-56
2023/08/20 09:17:00;;;;;;;7.25;6.15;;;;;;;25.84;55.99;99355.91;5091461;28;20079;-56
2023/08/20 09:19:30;;;;;;;9.15;6.25;;;;;;;25.72;56.38;99345.81;5091807;28;20070;-56
2023/08/20 09:21:58;;;;;;;7.95;6.22;;;;;;;25.68;56.37;99350.34;5074244;28;20447;-55
2023/08/20 09:24:39;;;;;;;6.82;6.22;;;;;;;25.63;56.81;99342.41;5091839;28;20156;-55
2023/08/20 09:27:05;;;;;;;6.97;6.30;;;;;;;25.68;56.34;99331.34;5092191;28;20089;-57
2023/08/20 09:29:33;;;;;;;9.48;5.53;;;;;;;25.57;56.18;99330.19;5092059;28;20509;-56
2023/08/20 09:32:02;;;;;;;6.18;5.50;;;;;;;25.42;56.49;99322.72;5074091;28;20098;-55
2023/08/20 09:34:41;;;;;;;6.35;5.45;;;;;;;25.32;56.28;99319.31;5091981;28;20127;-55
2023/08/20 09:37:10;;;;;;;6.53;5.90;;;;;;;25.20;56.98;99315.78;5091178;28;20036;-56
2023/08/20 09:39:36;;;;;;;8.27;5.68;;;;;;;25.10;56.89;99312.34;5092174;28;20063;-56
2023/08/20 09:42:02;;;;;;;6.53;5.90;;;;;;;25.13;57.22;99322.56;5091168;28;20035;-56
2023/08/20 09:44:34;;;;;;;6.53;5.40;;;;;;;25.23;56.69;99323.25;5073447;28;20060;-56
2023/08/20 09:47:00;;;;;;;7.93;6.07;;;;;;;25.37;56.63;99321.03;5073979;28;20485;-56
2023/08/20 09:49:30;;;;;;;6.53;5.93;;;;;;;25.53;56.01;99321.94;5057027;28;20055;-58
2023/08/20 09:51:55;;;;;;;;;;;;;;;25.67;55.08;99316.16;5092381;28;20044;-56
2023/08/20 09:54:35;;;;;;;7.80;5.88;;;;;;;25.81;54.73;99322.03;5073254;28;19957;-56
2023/08/20 09:57:02;;;;;;;8.90;5.82;;;;;;;25.92;54.49;99318.91;5091583;28;20044;-57
2023/08/20 09:59:28;;;;;;;7.25;5.70;;;;;;;26.00;53.48;99324.22;5091629;28;20055;-57
2023/08/20 10:01:55;;;;;;;6.78;5.95;;;;;;;25.98;54.43;99314.81;5073426;28;20036;-57
2023/08/20 10:04:21;;;;;;;6.32;5.57;;;;;;;25.91;54.59;99315.38;5073359;28;20102;-58
2023/08/20 10:06:48;;;;;;;7.57;6.85;;;;;;;25.85;55.02;99310.53;5073160;28;20135;-57
2023/08/20 10:09:14;;;;;;;9.48;6.55;;;;;;;25.81;55.48;99310.41;5073263;28;20052;-57
2023/08/20 10:11:40;;;;;;;6.38;5.78;;;;;;;25.74;55.29;99310.19;5091630;28;20044;-54
2023/08/20 10:14:06;;;;;;;9.00;6.20;;;;;;;25.70;55.20;99301.91;5091413;28;20044;-57
2023/08/20 10:16:33;;;;;;;7.07;6.38;;;;;;;25.64;55.29;99303.28;5073342;28;20050;-58
2023/08/20 10:19:03;;;;;;;6.75;6.10;;;;;;;25.60;55.71;99299.66;5091224;28;20044;-57
2023/08/20 10:21:29;;;;;;;6.53;5.70;;;;;;;25.56;55.46;99296.03;5091347;28;20520;-57
2023/08/20 10:23:54;;;;;;;6.85;5.78;;;;;;;25.51;55.52;99291.63;5090496;28;20210;-56
2023/08/20 10:26:21;;;;;;;5.88;5.38;;;;;;;25.48;55.31;99284.19;5073487;28;20044;-58
2023/08/20 10:28:47;;;;;;;7.00;6.13;;;;;;;25.60;55.37;99278.75;5091462;28;20063;-56
2023/08/20 10:31:13;;;;;;;7.10;6.30;;;;;;;25.66;55.75;99271.16;5091192;28;20036;-57
2023/08/20 10:33:48;;;;;;;11.18;6.38;;;;;;;25.81;55.36;99265.03;5073007;28;20089;-57
2023/08/20 10:36:16;;;;;;;9.18;6.95;;;;;;;25.91;55.57;99258.34;5091178;28;20044;-55
2023/08/20 10:38:41;;;;;;;10.30;7.22;;;;;;;25.97;55.37;99248.88;5091473;28;20405;-56
2023/08/20 10:41:08;;;;;;;11.77;6.82;;;;;;;26.07;54.64;99250.31;5091327;28;20040;-57
2023/08/20 10:43:35;;;;;;;7.18;6.03;;;;;;;26.08;54.77;99240.22;5091022;28;20048;-57
2023/08/20 10:46:17;;;;;;;7.70;6.05;;;;;;;26.11;54.60;99258.53;5091185;28;20036;-56
2023/08/20 10:48:50;;;;;;;8.15;7.35;;;;;;;26.14;55.05;99257.84;5074071;28;20048;-56
2023/08/20 10:51:29;;;;;;;7.60;6.03;;;;;;;26.21;54.21;99261.56;5077115;28;20036;-57
2023/08/20 10:54:00;;;;;;;8.25;6.43;;;;;;;26.17;54.58;99247.09;5095021;28;20048;-56
2023/08/20 10:56:53;;;;;;;9.48;5.80;;;;;;;26.23;54.07;99247.63;5095075;28;20044;-56
2023/08/20 10:59:25;;;;;;;7.70;5.82;;;;;;;26.32;53.28;99240.13;5094913;28;20097;-56
2023/08/20 11:01:53;;;;;;;6.60;6.00;;;;;;;26.39;53.23;99243.06;5095021;28;20032;-55
2023/08/20 11:04:20;;;;;;;7.85;6.25;;;;;;;26.65;53.00;99237.19;5076661;28;20093;-58
2023/08/20 11:06:46;;;;;;;8.00;6.38;;;;;;;26.94;52.69;99232.44;5094888;28;20063;-57
2023/08/20 11:09:13;;;;;;;8.48;6.00;;;;;;;27.21;51.69;99238.19;5094649;28;20086;-56
2023/08/20 11:11:42;;;;;;;10.43;6.15;;;;;;;27.45;50.87;99229.06;5093845;28;20051;-56
2023/08/20 11:14:13;;;;;;;6.25;5.65;;;;;;;27.69;50.09;99228.81;5094760;28;20062;-56
2023/08/20 11:16:39;;;;;;;8.45;5.95;;;;;;;27.89;49.19;99221.50;5094853;28;20043;-58
2023/08/20 11:19:08;;;;;;;8.93;5.88;;;;;;;27.94;49.63;99223.13;5060083;28;20122;-57
2023/08/20 11:21:43;;;;;;;6.30;5.70;;;;;;;27.89;48.93;99216.03;5094496;28;20074;-56
2023/08/20 11:24:10;;;;;;;8.13;6.30;;;;;;;27.85;49.05;99220.63;5094510;28;20305;-54